createdAt,value
2022-11-30T00:01:33.837Z,48.70
2022-11-30T00:04:37.910Z,44.50
2022-11-30T00:07:40.905Z,53.67
2022-11-30T00:10:43.788Z,49.90
2022-11-30T00:13:46.499Z,49.10
2022-11-30T00:16:49.270Z,48.43
2022-11-30T00:19:53.733Z,45.60
2022-11-30T00:22:57.262Z,56.93
2022-11-30T00:26:03.112Z,52.60
2022-11-30T00:29:05.915Z,49.73
2022-11-30T00:32:08.657Z,46.63
2022-11-30T00:35:12.765Z,44.90
2022-11-30T00:38:15.718Z,54.53
2022-11-30T00:41:19.505Z,56.43
2022-11-30T00:44:22.311Z,53.83
2022-11-30T00:47:25.110Z,58.23
2022-11-30T00:50:29.154Z,53.73
2022-11-30T00:53:32.033Z,53.97
2022-11-30T00:56:34.812Z,50.03
2022-11-30T00:59:37.646Z,51.70
2022-11-30T01:02:40.461Z,52.17
2022-11-30T01:05:44.634Z,59.00
2022-11-30T01:08:48.073Z,51.43
2022-11-30T01:11:50.839Z,52.07
2022-11-30T01:14:53.549Z,52.33
2022-11-30T01:17:56.277Z,49.67
2022-11-30T01:21:00.329Z,55.00
2022-11-30T01:24:03.811Z,55.27
2022-11-30T01:27:06.541Z,55.53
2022-11-30T01:30:10.212Z,51.93
2022-11-30T01:33:12.932Z,51.83
2022-11-30T01:36:18.455Z,54.73
2022-11-30T01:39:21.217Z,52.90
2022-11-30T01:42:23.960Z,50.30
2022-11-30T01:45:26.696Z,48.07
2022-11-30T01:48:30.334Z,54.73
2022-11-30T01:51:39.215Z,48.40
2022-11-30T01:54:47.180Z,49.13
2022-11-30T01:57:53.859Z,50.77
2022-11-30T02:00:56.852Z,51.40
2022-11-30T02:04:04.516Z,52.53
2022-11-30T02:07:09.580Z,48.50
2022-11-30T02:10:15.956Z,52.60
2022-11-30T02:13:41.610Z,47.87
2022-11-30T02:16:55.573Z,49.07
2022-11-30T02:20:27.713Z,45.20
2022-11-30T02:24:12.377Z,50.53
2022-11-30T02:27:26.178Z,54.67
2022-11-30T02:30:35.131Z,50.13
2022-11-30T02:33:41.437Z,45.50
2022-11-30T02:36:47.069Z,50.80
2022-11-30T02:39:49.789Z,49.23
2022-11-30T02:42:55.558Z,47.57
2022-11-30T02:46:08.863Z,48.77
2022-11-30T02:49:18.632Z,50.93
2022-11-30T02:52:25.268Z,46.43
2022-11-30T02:55:30.410Z,48.30
2022-11-30T02:58:33.214Z,45.17
2022-11-30T03:01:37.836Z,41.07
2022-11-30T03:04:40.592Z,41.13
2022-11-30T03:07:43.422Z,35.37
2022-11-30T03:10:46.242Z,35.00
2022-11-30T03:13:49.012Z,38.23
2022-11-30T03:16:53.184Z,43.73
2022-11-30T03:19:55.939Z,39.17
2022-11-30T03:23:02.228Z,33.97
2022-11-30T03:26:06.809Z,38.47
2022-11-30T03:29:09.888Z,35.40
2022-11-30T03:32:13.957Z,35.30
2022-11-30T03:35:16.876Z,32.23
2022-11-30T03:38:19.696Z,39.43
2022-11-30T03:41:22.503Z,42.40
2022-11-30T03:44:25.298Z,41.20
2022-11-30T03:47:29.334Z,37.80
2022-11-30T03:50:32.468Z,37.13
2022-11-30T03:53:35.538Z,40.73
2022-11-30T03:56:38.450Z,40.23
2022-11-30T03:59:41.238Z,41.30
2022-11-30T04:02:45.432Z,32.80
2022-11-30T04:05:48.643Z,41.90
2022-11-30T04:08:51.794Z,37.63
2022-11-30T04:11:54.631Z,39.00
2022-11-30T04:14:57.400Z,39.80
2022-11-30T04:18:01.504Z,39.70
2022-11-30T04:21:04.941Z,37.37
2022-11-30T04:24:09.049Z,44.03
2022-11-30T04:27:11.830Z,46.43
2022-11-30T04:30:15.953Z,49.03
2022-11-30T04:33:20.093Z,42.43
2022-11-30T04:36:22.926Z,37.87
2022-11-30T04:39:25.906Z,44.63
2022-11-30T04:42:28.663Z,36.93
2022-11-30T04:45:35.313Z,44.63
2022-11-30T04:48:40.003Z,40.03
2022-11-30T04:51:42.814Z,39.33
2022-11-30T04:54:45.973Z,33.60
2022-11-30T04:57:49.770Z,40.10
2022-11-30T05:00:54.841Z,36.17
2022-11-30T05:04:00.276Z,38.73
2022-11-30T05:07:03.557Z,35.10
2022-11-30T05:10:08.104Z,37.20
2022-11-30T05:13:10.890Z,36.07
2022-11-30T05:16:13.669Z,37.87
2022-11-30T05:19:17.816Z,34.40
2022-11-30T05:22:20.579Z,40.10
2022-11-30T05:25:23.351Z,39.13
2022-11-30T05:28:26.058Z,46.20
2022-11-30T05:31:29.061Z,41.63
2022-11-30T05:34:49.426Z,41.00
2022-11-30T05:37:53.168Z,40.53
2022-11-30T05:41:01.454Z,43.13
2022-11-30T05:44:04.536Z,35.57
2022-11-30T05:47:07.791Z,37.93
2022-11-30T05:50:12.391Z,42.37
2022-11-30T05:53:15.084Z,35.77
2022-11-30T05:56:21.090Z,41.97
2022-11-30T05:59:24.401Z,42.33
2022-11-30T06:02:28.440Z,39.57
2022-11-30T06:05:36.368Z,36.27
2022-11-30T06:08:39.298Z,36.60
2022-11-30T06:11:42.018Z,27.50
2022-11-30T06:14:45.124Z,48.43
2022-11-30T06:17:48.053Z,39.13
2022-11-30T06:20:52.148Z,41.27
2022-11-30T06:23:54.942Z,41.40
2022-11-30T06:26:57.697Z,35.73
2022-11-30T06:30:00.433Z,40.80
2022-11-30T06:33:03.674Z,37.47
2022-11-30T06:36:08.789Z,38.50
2022-11-30T06:39:12.278Z,40.17
2022-11-30T06:42:15.031Z,37.40
2022-11-30T06:45:18.027Z,31.37
2022-11-30T06:48:22.961Z,34.87
2022-11-30T06:51:27.058Z,33.87
2022-11-30T06:54:29.902Z,35.20
2022-11-30T06:57:32.644Z,33.40
2022-11-30T07:00:35.564Z,34.77
2022-11-30T07:03:38.683Z,37.23
2022-11-30T07:06:43.438Z,38.27
2022-11-30T07:09:46.174Z,41.30
2022-11-30T07:12:48.893Z,40.67
2022-11-30T07:15:51.823Z,39.33
2022-11-30T07:18:54.591Z,40.47
2022-11-30T07:21:58.674Z,36.97
2022-11-30T07:25:18.790Z,39.57
2022-11-30T07:28:21.541Z,34.17
2022-11-30T07:31:27.068Z,38.33
2022-11-30T07:34:30.617Z,34.20
2022-11-30T07:37:34.703Z,33.80
2022-11-30T07:40:37.444Z,32.50
2022-11-30T07:43:40.559Z,32.30
2022-11-30T07:46:43.383Z,35.60
2022-11-30T07:49:46.187Z,33.37
2022-11-30T07:52:50.228Z,35.93
2022-11-30T07:55:56.975Z,31.00
2022-11-30T07:59:01.795Z,35.83
2022-11-30T08:02:04.816Z,31.07
2022-11-30T08:05:11.323Z,37.93
2022-11-30T08:08:15.456Z,33.10
2022-11-30T08:11:20.277Z,31.30
2022-11-30T08:14:23.061Z,33.27
2022-11-30T08:17:25.899Z,31.50
2022-11-30T08:20:28.626Z,30.93
2022-11-30T08:23:34.844Z,31.23
2022-11-30T08:26:37.677Z,33.63
2022-11-30T08:29:41.335Z,32.63
2022-11-30T08:32:44.111Z,31.13
2022-11-30T08:35:46.894Z,33.60
2022-11-30T08:38:51.033Z,38.03
2022-11-30T08:41:53.909Z,36.10
2022-11-30T08:44:56.671Z,36.60
2022-11-30T08:47:59.569Z,32.53
2022-11-30T08:51:02.976Z,30.40
2022-11-30T08:54:07.202Z,34.07
2022-11-30T08:57:09.915Z,46.80
2022-11-30T09:00:13.930Z,40.97
2022-11-30T09:03:16.661Z,46.20
2022-11-30T09:06:21.127Z,45.77
2022-11-30T09:09:25.438Z,35.87
2022-11-30T09:12:28.203Z,37.83
2022-11-30T09:15:31.104Z,33.93
2022-11-30T09:18:34.918Z,34.53
2022-11-30T09:21:37.770Z,40.20
2022-11-30T09:24:41.897Z,35.90
2022-11-30T09:27:44.669Z,39.40
2022-11-30T09:30:47.453Z,44.00
2022-11-30T09:33:52.584Z,33.83
2022-11-30T09:36:55.960Z,37.17
2022-11-30T09:40:00.117Z,36.57
2022-11-30T09:43:07.880Z,34.80
2022-11-30T09:46:12.148Z,38.57
2022-11-30T09:49:20.075Z,36.50
2022-11-30T09:52:29.638Z,43.47
2022-11-30T09:55:40.028Z,37.17
2022-11-30T09:58:49.057Z,40.93
2022-11-30T10:01:56.651Z,38.07
2022-11-30T10:05:00.811Z,36.43
2022-11-30T10:08:20.528Z,30.57
2022-11-30T10:11:42.270Z,34.03
2022-11-30T10:15:00.607Z,31.23
2022-11-30T10:18:13.192Z,37.93
2022-11-30T10:21:28.400Z,37.97
2022-11-30T10:24:45.749Z,38.67
2022-11-30T10:27:53.303Z,34.53
2022-11-30T10:30:56.050Z,36.13
2022-11-30T10:34:04.701Z,34.40
2022-11-30T10:37:12.579Z,29.13
2022-11-30T10:40:20.798Z,33.83
2022-11-30T10:43:29.830Z,34.17
2022-11-30T10:46:37.625Z,27.63
2022-11-30T10:49:45.306Z,29.10
2022-11-30T10:52:52.088Z,29.00
2022-11-30T10:56:02.019Z,29.30
2022-11-30T10:59:12.893Z,33.07
2022-11-30T11:02:36.451Z,31.63
2022-11-30T11:05:39.222Z,30.70
2022-11-30T11:08:45.467Z,26.43
2022-11-30T11:11:54.996Z,32.57
2022-11-30T11:15:11.668Z,30.30
2022-11-30T11:18:24.460Z,33.70
2022-11-30T11:21:28.467Z,37.13
2022-11-30T11:24:31.422Z,32.07
2022-11-30T11:27:37.535Z,33.37
2022-11-30T11:30:45.579Z,35.60
2022-11-30T11:33:53.734Z,36.30
2022-11-30T11:37:06.298Z,32.07
2022-11-30T11:40:15.914Z,39.40
2022-11-30T11:43:19.643Z,39.33
2022-11-30T11:46:24.149Z,31.93
2022-11-30T11:49:29.745Z,39.50
2022-11-30T11:52:32.483Z,39.53
2022-11-30T11:55:36.517Z,39.53
2022-11-30T11:58:44.084Z,41.33
2022-11-30T12:01:56.414Z,41.77
2022-11-30T12:05:04.044Z,39.83
2022-11-30T12:08:14.466Z,39.63
2022-11-30T12:11:20.599Z,42.87
2022-11-30T12:14:23.457Z,49.83
2022-11-30T12:17:52.378Z,40.53
2022-11-30T12:20:59.458Z,44.73
2022-11-30T12:24:15.768Z,46.07
2022-11-30T12:27:26.366Z,43.47
2022-11-30T12:30:38.958Z,42.27
2022-11-30T12:34:14.769Z,43.57
2022-11-30T12:37:25.561Z,64.03
2022-11-30T12:40:37.622Z,48.80
2022-11-30T12:43:59.403Z,71.07
2022-11-30T12:47:20.298Z,186.53
2022-11-30T12:50:39.365Z,66.70
2022-11-30T12:53:48.421Z,50.50
2022-11-30T12:56:56.130Z,63.30
2022-11-30T13:00:07.166Z,57.47
2022-11-30T13:03:42.588Z,51.73
2022-11-30T13:06:49.782Z,51.40
2022-11-30T13:09:57.699Z,62.83
2022-11-30T13:13:03.240Z,54.60
2022-11-30T13:16:09.514Z,48.73
2022-11-30T13:19:27.556Z,56.90
2022-11-30T13:22:43.945Z,57.47
2022-11-30T13:29:50.349Z,50.13
2022-11-30T13:32:58.320Z,63.90
2022-11-30T13:36:04.999Z,70.93
2022-11-30T13:39:30.815Z,62.07
2022-11-30T13:42:36.281Z,67.10
2022-11-30T13:45:39.216Z,64.30
2022-11-30T13:48:43.881Z,59.37
2022-11-30T13:51:56.775Z,65.50
2022-11-30T13:55:43.045Z,46.43
2022-11-30T13:59:18.985Z,47.93
2022-11-30T14:03:00.169Z,46.47
2022-11-30T14:06:28.962Z,48.57
2022-11-30T14:09:58.308Z,46.57
2022-11-30T14:13:03.359Z,47.23
2022-11-30T14:16:21.356Z,43.43
2022-11-30T14:19:24.271Z,50.57
2022-11-30T14:22:30.426Z,45.77
2022-11-30T14:25:36.150Z,41.20
2022-11-30T14:28:43.909Z,37.77
2022-11-30T14:31:57.785Z,44.50
2022-11-30T14:35:08.947Z,50.87
2022-11-30T14:38:24.493Z,48.17
2022-11-30T14:41:29.356Z,48.67
2022-11-30T14:44:35.710Z,53.50
2022-11-30T14:47:41.322Z,44.20
2022-11-30T14:50:49.473Z,46.73
2022-11-30T14:53:59.629Z,46.43
2022-11-30T14:57:12.414Z,69.33
2022-11-30T15:00:17.863Z,57.50
2022-11-30T15:03:26.461Z,50.70
2022-11-30T15:06:33.304Z,53.97
2022-11-30T15:09:37.697Z,54.97
2022-11-30T15:12:41.754Z,48.63
2022-11-30T15:15:52.378Z,80.00
2022-11-30T15:18:57.335Z,38.00
2022-11-30T15:22:00.385Z,48.17
2022-11-30T15:25:05.840Z,37.57
2022-11-30T15:28:10.640Z,46.60
2022-11-30T15:31:17.763Z,42.20
2022-11-30T15:34:23.091Z,44.30
2022-11-30T15:37:31.178Z,48.67
2022-11-30T15:40:35.899Z,34.90
2022-11-30T15:43:40.708Z,36.93
2022-11-30T15:46:56.959Z,32.93
2022-11-30T15:49:59.772Z,44.90
2022-11-30T15:53:04.305Z,47.13
2022-11-30T15:56:10.487Z,50.20
2022-11-30T15:59:23.450Z,36.83
2022-11-30T16:02:32.248Z,45.07
2022-11-30T16:05:35.035Z,44.23
2022-11-30T16:08:37.904Z,38.87
2022-11-30T16:11:42.094Z,31.67
2022-11-30T16:14:44.861Z,40.30
2022-11-30T16:17:47.668Z,39.97
2022-11-30T16:20:52.903Z,40.70
2022-11-30T16:23:55.661Z,44.97
2022-11-30T16:26:59.981Z,49.03
2022-11-30T16:30:03.427Z,49.50
2022-11-30T16:33:07.076Z,54.37
2022-11-30T16:36:14.448Z,47.50
2022-11-30T16:39:18.570Z,41.03
2022-11-30T16:42:32.182Z,35.47
2022-11-30T16:45:37.767Z,31.83
2022-11-30T16:48:41.311Z,40.63
2022-11-30T16:51:44.468Z,54.30
2022-11-30T16:54:47.190Z,32.93
2022-11-30T16:57:52.019Z,26.30
2022-11-30T17:00:55.064Z,25.77
2022-11-30T17:03:58.060Z,25.03
2022-11-30T17:07:02.990Z,25.43
2022-11-30T17:10:07.136Z,25.47
2022-11-30T17:13:14.914Z,24.03
2022-11-30T17:16:17.832Z,21.40
2022-11-30T17:19:20.827Z,21.30
2022-11-30T17:22:23.562Z,19.07
2022-11-30T17:25:26.462Z,23.00
2022-11-30T17:28:30.597Z,22.83
2022-11-30T17:31:33.813Z,23.57
2022-11-30T17:34:36.595Z,23.77
2022-11-30T17:37:40.102Z,28.80
2022-11-30T17:40:43.128Z,26.67
2022-11-30T17:43:47.297Z,21.87
2022-11-30T17:46:50.094Z,19.33
2022-11-30T17:49:52.889Z,18.90
2022-11-30T17:52:55.735Z,21.23
2022-11-30T17:56:05.966Z,22.30
2022-11-30T17:59:10.213Z,22.00
2022-11-30T18:02:13.619Z,34.40
2022-11-30T18:05:16.598Z,14.70
2022-11-30T18:08:19.617Z,31.27
2022-11-30T18:11:24.664Z,24.93
2022-11-30T18:14:28.848Z,18.60
2022-11-30T18:17:32.041Z,19.07
2022-11-30T18:20:34.923Z,19.97
2022-11-30T18:23:38.142Z,18.90
2022-11-30T18:26:41.661Z,20.73
2022-11-30T18:29:45.751Z,20.87
2022-11-30T18:32:48.864Z,20.50
2022-11-30T18:35:51.736Z,20.23
2022-11-30T18:38:54.860Z,25.93
2022-11-30T18:41:57.756Z,22.67
2022-11-30T18:45:02.274Z,21.30
2022-11-30T18:48:06.400Z,18.17
2022-11-30T18:51:13.598Z,13.20
2022-11-30T18:54:16.373Z,16.70
2022-11-30T18:57:19.169Z,14.43
2022-11-30T19:00:24.766Z,17.80
2022-11-30T19:03:27.559Z,20.97
2022-11-30T19:06:32.785Z,22.37
2022-11-30T19:09:35.547Z,30.63
2022-11-30T19:12:38.508Z,19.10
2022-11-30T19:15:43.361Z,22.63
2022-11-30T19:18:48.403Z,25.70
2022-11-30T19:21:51.333Z,26.23
2022-11-30T19:24:54.042Z,22.87
2022-11-30T19:27:56.825Z,22.27
2022-11-30T19:31:02.469Z,22.50
2022-11-30T19:34:11.974Z,21.37
2022-11-30T19:37:15.623Z,25.30
2022-11-30T19:40:18.531Z,25.87
2022-11-30T19:43:21.268Z,29.03
2022-11-30T19:46:26.238Z,31.10
2022-11-30T19:49:28.977Z,30.53
2022-11-30T19:52:31.828Z,29.43
2022-11-30T19:55:34.612Z,34.27
2022-11-30T19:58:37.371Z,31.17
2022-11-30T20:01:41.809Z,40.83
2022-11-30T20:04:44.736Z,33.40
2022-11-30T20:07:47.572Z,33.63
2022-11-30T20:10:50.408Z,38.40
2022-11-30T20:13:53.293Z,29.70
2022-11-30T20:16:57.387Z,36.43
2022-11-30T20:20:00.127Z,34.30
2022-11-30T20:23:04.616Z,33.80
2022-11-30T20:26:15.697Z,33.30
2022-11-30T20:29:19.240Z,34.87
2022-11-30T20:32:23.996Z,32.53
2022-11-30T20:35:26.871Z,32.73
2022-11-30T20:38:30.124Z,35.13
2022-11-30T20:41:33.981Z,36.90
2022-11-30T20:44:37.364Z,31.43
2022-11-30T20:47:41.459Z,33.90
2022-11-30T20:51:01.194Z,32.13
2022-11-30T20:54:08.172Z,32.17
2022-11-30T20:57:10.955Z,31.63
2022-11-30T21:00:14.988Z,31.73
2022-11-30T21:03:19.143Z,33.37
2022-11-30T21:06:22.002Z,31.67
2022-11-30T21:09:24.751Z,36.23
2022-11-30T21:12:27.663Z,31.00
2022-11-30T21:15:30.515Z,40.87
2022-11-30T21:18:34.872Z,35.50
2022-11-30T21:21:37.744Z,42.43
2022-11-30T21:24:40.551Z,39.70
2022-11-30T21:27:43.432Z,34.27
2022-11-30T21:30:46.307Z,32.20
2022-11-30T21:33:53.627Z,37.57
2022-11-30T21:36:56.733Z,30.63
2022-11-30T21:39:59.559Z,35.17
2022-11-30T21:43:02.308Z,35.40
2022-11-30T21:46:07.645Z,38.33
2022-11-30T21:49:12.338Z,35.60
2022-11-30T21:52:15.268Z,31.53
2022-11-30T21:55:18.414Z,43.07
2022-11-30T21:58:21.651Z,32.43
2022-11-30T22:01:27.264Z,37.07
2022-11-30T22:04:38.012Z,35.70
2022-11-30T22:07:41.055Z,34.50
2022-11-30T22:10:44.040Z,30.20
2022-11-30T22:13:50.530Z,34.57
2022-11-30T22:16:53.738Z,31.80
2022-11-30T22:19:57.987Z,32.77
2022-11-30T22:23:00.945Z,27.13
2022-11-30T22:26:15.622Z,32.23
2022-11-30T22:29:20.869Z,36.17
2022-11-30T22:32:24.236Z,34.67
2022-11-30T22:35:28.615Z,36.20
2022-11-30T22:38:31.904Z,34.87
2022-11-30T22:41:34.860Z,32.60
2022-11-30T22:44:37.722Z,34.23
2022-11-30T22:47:40.501Z,36.97
2022-11-30T22:50:44.666Z,35.97
2022-11-30T22:53:48.280Z,37.00
2022-11-30T22:56:51.075Z,34.53
2022-11-30T22:59:53.783Z,36.03
2022-11-30T23:02:56.651Z,31.73
2022-11-30T23:06:02.307Z,36.90
2022-11-30T23:09:06.661Z,35.10
2022-11-30T23:12:09.605Z,34.83
2022-11-30T23:15:12.608Z,36.40
2022-11-30T23:18:15.395Z,36.77
2022-11-30T23:21:21.485Z,30.07
2022-11-30T23:24:24.362Z,36.40
2022-11-30T23:27:27.130Z,43.73
2022-11-30T23:30:30.053Z,37.83
2022-11-30T23:33:32.832Z,44.53
2022-11-30T23:36:37.935Z,42.00
2022-11-30T23:39:40.673Z,36.10
2022-11-30T23:42:43.477Z,36.20
2022-11-30T23:45:46.644Z,40.73
2022-11-30T23:48:49.636Z,35.10
2022-11-30T23:51:53.743Z,41.03
2022-11-30T23:54:56.567Z,35.07
2022-11-30T23:57:59.345Z,37.97
